Georgetown, DE

12:18 PM EST on December 18, 2014 (GMT -0500)
Ocean City Municipal | Change Station
CLOSE
Current Station
Airport
Location: Ocean City,
Elevation: 13 ft
Nearby Weather Stations

Elev 13 ft 38.31 °N, 75.12 °W | Updated 25 minutes ago

Clear
Clear
40 °F
Feels Like 32 °F
N
13
Wind Variable Wind from NW
Gusts 24 mph

Today
High -- | Low -- °F
--% Chance of Precip.
Yesterday
High -- | Low -- °F
Precip. -- in
7:14 AM 4:42 PM
Waning Crescent, 13% visible
Pressure 30.09 in
Visibility 10.0 miles
Clouds Clear
Windchill 32 °F
Dew Point 21 °F
Humidity 47%
Rainfall 0.00 in
Snow Depth Not available.
UV 3 out of 12
Pollen .10 out of 12
Air Quality Not available.
Flu Activity Not available.
METAR KOXB 181653Z AUTO 32011G21KT 10SM CLR 04/M06 A3009 RMK AO2 SLP189 T00441061 TSNO

More Conditions Fewer Conditions

Pressure 30.09 in
Visibility 10.0 miles
Clouds Clear
Windchill 32 °F
Dew Point 21 °F
Humidity 47%
Rainfall 0.00 in
Snow Depth Not available.
UV 3 out of 12
Pollen .10 out of 12
Air Quality Not available.
Flu Activity Not available.
METAR KOXB 181653Z AUTO 32011G21KT 10SM CLR 04/M06 A3009 RMK AO2 SLP189 T00441061 TSNO

More Conditions Fewer Conditions

10-Day Weather Forecast

Almanac

Astronomy

Dec. 18, 2014 Rise Set
Actual Time
Civil Twilight
Nautical Twilight
Astronomical Twilight
Moon
Length of Visible Light
Length of Day
Tomorrow will be .
, % of the Moon is Illuminated

Today's Extremes

State Highs State Lows

Community

WunderPhotos

Upload Photos

1,778,964 photos uploaded!

WunderBlogs® & News

Nearby

Air Quality

  Air Quality AQ Index Pollutant
Not available.

Snow Depth

Station Depth Elevation

Earthquake Activity

City Distance Mag. Time & Date
Minimum magnitude displayed is 2.5.

Coastal Water Temperatures

Place Temperature

Nearby Weather Stations